sensor_id;sensor_type;location;lat;lon;timestamp;pressure;altitude;pressure_sealevel;temperature;humidity
41503;BME280;27237;42.554;22.966;2022-07-29T00:02:07;93447.94;;;22.08;61.33
41503;BME280;27237;42.554;22.966;2022-07-29T00:04:36;93444.13;;;22.09;61.48
41503;BME280;27237;42.554;22.966;2022-07-29T00:07:03;93443.63;;;22.07;61.62
41503;BME280;27237;42.554;22.966;2022-07-29T00:09:29;93444.25;;;22.04;61.52
41503;BME280;27237;42.554;22.966;2022-07-29T00:11:56;93434.09;;;22.01;61.42
41503;BME280;27237;42.554;22.966;2022-07-29T00:14:23;93436.16;;;22.04;61.42
41503;BME280;27237;42.554;22.966;2022-07-29T00:16:49;93436.16;;;22.04;61.27
41503;BME280;27237;42.554;22.966;2022-07-29T00:19:14;93425.06;;;22.06;61.59
41503;BME280;27237;42.554;22.966;2022-07-29T00:21:39;93415.50;;;22.00;61.41
41503;BME280;27237;42.554;22.966;2022-07-29T00:24:05;93421.34;;;21.93;61.07
41503;BME280;27237;42.554;22.966;2022-07-29T00:26:30;93423.41;;;21.87;60.88
41503;BME280;27237;42.554;22.966;2022-07-29T00:29:02;93429.78;;;21.91;60.95
41503;BME280;27237;42.554;22.966;2022-07-29T00:31:27;93422.78;;;21.90;60.77
41503;BME280;27237;42.554;22.966;2022-07-29T00:33:53;93416.28;;;21.83;60.92
41503;BME280;27237;42.554;22.966;2022-07-29T00:36:18;93386.66;;;21.60;61.10
41503;BME280;27237;42.554;22.966;2022-07-29T00:38:49;93416.56;;;21.81;61.51
41503;BME280;27237;42.554;22.966;2022-07-29T00:41:16;93418.97;;;21.83;61.58
41503;BME280;27237;42.554;22.966;2022-07-29T00:43:42;93411.97;;;21.82;61.53
41503;BME280;27237;42.554;22.966;2022-07-29T00:46:07;93411.81;;;21.78;61.64
41503;BME280;27237;42.554;22.966;2022-07-29T00:48:33;93395.84;;;21.59;61.78
41503;BME280;27237;42.554;22.966;2022-07-29T00:50:59;93416.19;;;21.65;62.02
41503;BME280;27237;42.554;22.966;2022-07-29T00:53:25;93405.06;;;21.58;62.21
41503;BME280;27237;42.554;22.966;2022-07-29T00:55:50;93424.47;;;21.60;62.30
41503;BME280;27237;42.554;22.966;2022-07-29T00:58:16;93420.47;;;21.58;62.62
41503;BME280;27237;42.554;22.966;2022-07-29T01:00:42;93420.44;;;21.49;62.34
41503;BME280;27237;42.554;22.966;2022-07-29T01:03:07;93410.72;;;21.39;62.78
41503;BME280;27237;42.554;22.966;2022-07-29T01:05:33;93409.94;;;21.39;63.19
41503;BME280;27237;42.554;22.966;2022-07-29T01:08:00;93409.44;;;21.37;63.43
41503;BME280;27237;42.554;22.966;2022-07-29T01:10:26;93410.22;;;21.37;63.54
41503;BME280;27237;42.554;22.966;2022-07-29T01:12:54;93416.72;;;21.36;63.46
41503;BME280;27237;42.554;22.966;2022-07-29T01:15:21;93416.72;;;21.36;63.41
41503;BME280;27237;42.554;22.966;2022-07-29T01:18:06;93402.69;;;21.25;63.36
41503;BME280;27237;42.554;22.966;2022-07-29T01:23:45;93421.78;;;21.29;63.16
41503;BME280;27237;42.554;22.966;2022-07-29T01:29:18;93425.88;;;21.26;63.03
41503;BME280;27237;42.554;22.966;2022-07-29T01:32:08;93430.63;;;21.21;63.14
41503;BME280;27237;42.554;22.966;2022-07-29T01:34:56;93413.16;;;21.18;63.05
41503;BME280;27237;42.554;22.966;2022-07-29T01:37:43;93418.53;;;21.18;62.92
41503;BME280;27237;42.554;22.966;2022-07-29T01:43:00;93413.16;;;21.18;62.74
41503;BME280;27237;42.554;22.966;2022-07-29T01:45:38;93409.16;;;21.16;63.00
41503;BME280;27237;42.554;22.966;2022-07-29T01:48:24;93402.78;;;21.12;63.10
41503;BME280;27237;42.554;22.966;2022-07-29T01:51:06;93404.38;;;21.13;63.32
41503;BME280;27237;42.554;22.966;2022-07-29T01:53:38;93404.38;;;21.13;63.49
41503;BME280;27237;42.554;22.966;2022-07-29T01:56:08;93400.56;;;21.14;63.59
41503;BME280;27237;42.554;22.966;2022-07-29T01:58:39;93397.59;;;21.15;63.02
41503;BME280;27237;42.554;22.966;2022-07-29T02:01:06;93399.16;;;21.16;62.87
41503;BME280;27237;42.554;22.966;2022-07-29T02:03:34;93393.16;;;21.19;63.37
41503;BME280;27237;42.554;22.966;2022-07-29T02:06:02;93392.06;;;21.20;63.21
41503;BME280;27237;42.554;22.966;2022-07-29T02:08:29;93400.16;;;21.20;63.13
41503;BME280;27237;42.554;22.966;2022-07-29T02:10:58;93383.44;;;21.10;62.85
41503;BME280;27237;42.554;22.966;2022-07-29T02:13:25;93389.94;;;21.17;63.01
41503;BME280;27237;42.554;22.966;2022-07-29T02:15:53;93388.88;;;21.18;63.01
41503;BME280;27237;42.554;22.966;2022-07-29T02:18:22;93398.88;;;21.18;63.24
41503;BME280;27237;42.554;22.966;2022-07-29T02:20:51;93391.41;;;21.15;63.20
41503;BME280;27237;42.554;22.966;2022-07-29T02:23:20;93394.38;;;21.13;63.42
41503;BME280;27237;42.554;22.966;2022-07-29T02:25:53;93388.03;;;21.09;63.53
41503;BME280;27237;42.554;22.966;2022-07-29T02:28:20;93365.88;;;20.90;63.39
41503;BME280;27237;42.554;22.966;2022-07-29T02:30:49;93392.09;;;20.98;63.29
41503;BME280;27237;42.554;22.966;2022-07-29T02:33:18;93387.75;;;20.88;63.54
41503;BME280;27237;42.554;22.966;2022-07-29T02:35:47;93388.69;;;20.83;63.73
41503;BME280;27237;42.554;22.966;2022-07-29T02:38:16;93383.59;;;20.82;63.98
41503;BME280;27237;42.554;22.966;2022-07-29T02:41:05;93387.09;;;20.82;63.82
41503;BME280;27237;42.554;22.966;2022-07-29T02:43:34;93371.22;;;20.81;64.08
41503;BME280;27237;42.554;22.966;2022-07-29T02:46:00;93375.34;;;20.78;63.99
41503;BME280;27237;42.554;22.966;2022-07-29T02:48:38;93378.50;;;20.80;63.98
41503;BME280;27237;42.554;22.966;2022-07-29T02:51:13;93385.81;;;20.80;63.65
41503;BME280;27237;42.554;22.966;2022-07-29T02:53:44;93378.81;;;20.79;63.67
41503;BME280;27237;42.554;22.966;2022-07-29T02:56:14;93377.25;;;20.78;63.58
41503;BME280;27237;42.554;22.966;2022-07-29T02:58:46;93382.94;;;20.76;63.37
41503;BME280;27237;42.554;22.966;2022-07-29T03:01:20;93382.44;;;20.74;63.38
41503;BME280;27237;42.554;22.966;2022-07-29T03:03:48;93360.78;;;20.57;63.50
41503;BME280;27237;42.554;22.966;2022-07-29T03:06:15;93386.88;;;20.70;63.36
41503;BME280;27237;42.554;22.966;2022-07-29T03:08:43;93393.34;;;20.69;63.44
41503;BME280;27237;42.554;22.966;2022-07-29T03:11:10;93388.28;;;20.68;63.28
41503;BME280;27237;42.554;22.966;2022-07-29T03:13:36;93384.28;;;20.65;63.48
41503;BME280;27237;42.554;22.966;2022-07-29T03:16:03;93354.13;;;20.40;63.54
41503;BME280;27237;42.554;22.966;2022-07-29T03:18:30;93393.00;;;20.62;63.75
41503;BME280;27237;42.554;22.966;2022-07-29T03:20:56;93383.91;;;20.58;63.56
41503;BME280;27237;42.554;22.966;2022-07-29T03:23:22;93391.81;;;20.54;63.91
41503;BME280;27237;42.554;22.966;2022-07-29T03:25:52;93396.44;;;20.54;64.23
41503;BME280;27237;42.554;22.966;2022-07-29T03:28:18;93400.69;;;20.55;64.16
41503;BME280;27237;42.554;22.966;2022-07-29T03:30:44;93385.56;;;20.45;63.86
41503;BME280;27237;42.554;22.966;2022-07-29T03:33:09;93391.91;;;20.49;63.93
41503;BME280;27237;42.554;22.966;2022-07-29T03:35:35;93387.34;;;20.50;64.21
41503;BME280;27237;42.554;22.966;2022-07-29T03:38:00;93383.53;;;20.51;63.69
41503;BME280;27237;42.554;22.966;2022-07-29T03:42:56;93395.31;;;20.55;64.21
41503;BME280;27237;42.554;22.966;2022-07-29T03:45:23;93393.44;;;20.55;64.23
41503;BME280;27237;42.554;22.966;2022-07-29T03:47:53;93402.31;;;20.56;64.07
41503;BME280;27237;42.554;22.966;2022-07-29T03:50:21;93397.38;;;20.58;64.04
41503;BME280;27237;42.554;22.966;2022-07-29T03:52:47;93404.69;;;20.57;63.84
41503;BME280;27237;42.554;22.966;2022-07-29T03:55:14;93392.63;;;20.55;63.94
41503;BME280;27237;42.554;22.966;2022-07-29T03:57:39;93396.22;;;20.50;63.46
41503;BME280;27237;42.554;22.966;2022-07-29T04:00:06;93404.59;;;20.49;63.27
41503;BME280;27237;42.554;22.966;2022-07-29T04:02:32;93406.00;;;20.46;63.08
41503;BME280;27237;42.554;22.966;2022-07-29T04:04:58;93403.91;;;20.43;63.37
41503;BME280;27237;42.554;22.966;2022-07-29T04:07:23;93409.50;;;20.47;63.91
41503;BME280;27237;42.554;22.966;2022-07-29T04:09:49;93390.56;;;20.38;63.81
41503;BME280;27237;42.554;22.966;2022-07-29T04:12:14;93406.50;;;20.48;63.94
41503;BME280;27237;42.554;22.966;2022-07-29T04:14:40;93401.28;;;20.52;64.01
41503;BME280;27237;42.554;22.966;2022-07-29T04:17:05;93392.94;;;20.53;64.18
41503;BME280;27237;42.554;22.966;2022-07-29T04:19:31;93408.16;;;20.58;64.38
41503;BME280;27237;42.554;22.966;2022-07-29T04:21:59;93409.47;;;20.60;64.21
41503;BME280;27237;42.554;22.966;2022-07-29T04:24:25;93392.94;;;20.53;64.19
41503;BME280;27237;42.554;22.966;2022-07-29T04:26:50;93411.25;;;20.65;64.39
41503;BME280;27237;42.554;22.966;2022-07-29T04:29:16;93388.72;;;20.61;64.49
41503;BME280;27237;42.554;22.966;2022-07-29T04:31:42;93407.19;;;20.76;64.94
41503;BME280;27237;42.554;22.966;2022-07-29T04:34:08;93403.09;;;20.79;65.04
41503;BME280;27237;42.554;22.966;2022-07-29T04:36:34;93342.00;;;20.29;64.53
41503;BME280;27237;42.554;22.966;2022-07-29T04:38:59;93410.75;;;20.85;65.40
41503;BME280;27237;42.554;22.966;2022-07-29T04:41:26;93410.94;;;20.89;64.76
41503;BME280;27237;42.554;22.966;2022-07-29T04:43:52;93417.59;;;20.92;64.97
41503;BME280;27237;42.554;22.966;2022-07-29T04:46:18;93409.69;;;20.95;64.44
41503;BME280;27237;42.554;22.966;2022-07-29T04:48:45;93406.69;;;20.97;64.44
41503;BME280;27237;42.554;22.966;2022-07-29T04:51:11;93405.25;;;20.99;64.40
41503;BME280;27237;42.554;22.966;2022-07-29T04:53:36;93406.06;;;21.00;64.50
41503;BME280;27237;42.554;22.966;2022-07-29T04:56:02;93411.94;;;21.02;64.56
41503;BME280;27237;42.554;22.966;2022-07-29T04:58:27;93413.06;;;21.01;64.74
41503;BME280;27237;42.554;22.966;2022-07-29T05:00:53;93409.25;;;21.02;64.76
41503;BME280;27237;42.554;22.966;2022-07-29T05:03:18;93408.28;;;20.98;64.82
41503;BME280;27237;42.554;22.966;2022-07-29T05:05:44;93377.84;;;20.75;65.52
41503;BME280;27237;42.554;22.966;2022-07-29T05:08:09;93420.66;;;20.99;65.16
41503;BME280;27237;42.554;22.966;2022-07-29T05:10:35;93423.47;;;20.94;65.34
41503;BME280;27237;42.554;22.966;2022-07-29T05:13:04;93422.53;;;20.90;65.42
41503;BME280;27237;42.554;22.966;2022-07-29T05:15:31;93420.06;;;20.79;65.83
41503;BME280;27237;42.554;22.966;2022-07-29T05:17:56;93420.25;;;20.60;67.14
41503;BME280;27237;42.554;22.966;2022-07-29T05:20:22;93421.75;;;20.67;67.25
41503;BME280;27237;42.554;22.966;2022-07-29T05:22:51;93423.25;;;20.81;67.52
41503;BME280;27237;42.554;22.966;2022-07-29T05:25:17;93425.56;;;20.97;67.01
41503;BME280;27237;42.554;22.966;2022-07-29T05:27:43;93421.66;;;21.12;66.44
41503;BME280;27237;42.554;22.966;2022-07-29T05:30:08;93424.28;;;21.25;66.32
41503;BME280;27237;42.554;22.966;2022-07-29T05:32:34;93421.84;;;21.38;65.14
41503;BME280;27237;42.554;22.966;2022-07-29T05:34:59;93425.53;;;21.50;64.65
41503;BME280;27237;42.554;22.966;2022-07-29T05:37:25;93430.31;;;21.62;64.59
41503;BME280;27237;42.554;22.966;2022-07-29T05:39:50;93432.13;;;21.75;64.73
41503;BME280;27237;42.554;22.966;2022-07-29T05:42:16;93433.25;;;21.83;63.31
41503;BME280;27237;42.554;22.966;2022-07-29T05:44:41;93438.84;;;21.95;63.56
41503;BME280;27237;42.554;22.966;2022-07-29T05:47:07;93442.53;;;22.08;63.79
41503;BME280;27237;42.554;22.966;2022-07-29T05:49:32;93439.53;;;22.18;63.04
41503;BME280;27237;42.554;22.966;2022-07-29T05:51:58;93445.94;;;22.31;63.03
41503;BME280;27237;42.554;22.966;2022-07-29T05:54:24;93442.59;;;22.43;62.49
41503;BME280;27237;42.554;22.966;2022-07-29T05:56:49;93442.28;;;22.53;62.56
41503;BME280;27237;42.554;22.966;2022-07-29T05:59:14;93441.47;;;22.61;62.65
41503;BME280;27237;42.554;22.966;2022-07-29T06:01:40;93445.00;;;22.71;62.95
41503;BME280;27237;42.554;22.966;2022-07-29T06:04:06;93447.97;;;22.86;62.89
41503;BME280;27237;42.554;22.966;2022-07-29T06:06:33;93439.25;;;22.98;61.62
41503;BME280;27237;42.554;22.966;2022-07-29T06:08:59;93429.69;;;22.92;62.67
41503;BME280;27237;42.554;22.966;2022-07-29T06:11:24;93439.69;;;23.09;62.41
41503;BME280;27237;42.554;22.966;2022-07-29T06:13:50;93428.53;;;23.19;61.59
41503;BME280;27237;42.554;22.966;2022-07-29T06:16:15;93433.44;;;23.26;60.76
41503;BME280;27237;42.554;22.966;2022-07-29T06:18:40;93433.56;;;23.38;60.72
41503;BME280;27237;42.554;22.966;2022-07-29T06:21:09;93435.75;;;23.53;60.71
41503;BME280;27237;42.554;22.966;2022-07-29T06:23:38;93432.34;;;23.65;60.03
41503;BME280;27237;42.554;22.966;2022-07-29T06:26:04;93425.81;;;23.75;58.96
41503;BME280;27237;42.554;22.966;2022-07-29T06:28:30;93429.72;;;23.86;58.47
41503;BME280;27237;42.554;22.966;2022-07-29T06:30:56;93417.78;;;23.87;59.19
41503;BME280;27237;42.554;22.966;2022-07-29T06:33:21;93434.53;;;24.10;59.33
41503;BME280;27237;42.554;22.966;2022-07-29T06:35:47;93438.00;;;24.19;58.36
41503;BME280;27237;42.554;22.966;2022-07-29T06:38:13;93440.78;;;24.32;59.03
41503;BME280;27237;42.554;22.966;2022-07-29T06:40:43;93442.81;;;24.44;58.58
41503;BME280;27237;42.554;22.966;2022-07-29T06:43:38;93440.38;;;24.42;58.24
41503;BME280;27237;42.554;22.966;2022-07-29T06:46:08;93434.47;;;24.49;57.75
41503;BME280;27237;42.554;22.966;2022-07-29T06:48:34;93439.50;;;24.59;58.52
41503;BME280;27237;42.554;22.966;2022-07-29T06:51:02;93443.47;;;24.61;58.33
41503;BME280;27237;42.554;22.966;2022-07-29T06:53:28;93445.78;;;24.72;58.97
41503;BME280;27237;42.554;22.966;2022-07-29T06:55:53;93439.94;;;24.82;58.95
41503;BME280;27237;42.554;22.966;2022-07-29T06:58:19;93438.56;;;24.97;60.04
41503;BME280;27237;42.554;22.966;2022-07-29T07:00:47;93442.72;;;24.94;59.50
41503;BME280;27237;42.554;22.966;2022-07-29T07:03:13;93431.97;;;24.98;59.79
41503;BME280;27237;42.554;22.966;2022-07-29T07:05:38;93416.97;;;24.79;59.54
41503;BME280;27237;42.554;22.966;2022-07-29T07:08:04;93438.91;;;25.07;59.53
41503;BME280;27237;42.554;22.966;2022-07-29T07:10:30;93440.88;;;25.19;58.48
41503;BME280;27237;42.554;22.966;2022-07-29T07:12:56;93429.97;;;25.40;59.21
41503;BME280;27237;42.554;22.966;2022-07-29T07:15:21;93428.97;;;25.57;58.85
41503;BME280;27237;42.554;22.966;2022-07-29T07:17:50;93436.34;;;25.81;57.67
41503;BME280;27237;42.554;22.966;2022-07-29T07:20:16;93423.00;;;26.01;56.98
41503;BME280;27237;42.554;22.966;2022-07-29T07:22:42;93430.50;;;26.16;55.96
41503;BME280;27237;42.554;22.966;2022-07-29T07:25:07;93419.91;;;26.27;53.66
41503;BME280;27237;42.554;22.966;2022-07-29T07:27:34;93428.19;;;26.42;53.49
41503;BME280;27237;42.554;22.966;2022-07-29T07:30:00;93409.72;;;26.36;52.63
41503;BME280;27237;42.554;22.966;2022-07-29T07:32:26;93425.13;;;26.56;52.76
41503;BME280;27237;42.554;22.966;2022-07-29T07:34:51;93431.44;;;26.60;51.10
41503;BME280;27237;42.554;22.966;2022-07-29T07:37:17;93421.22;;;26.70;50.73
41503;BME280;27237;42.554;22.966;2022-07-29T07:39:45;93419.38;;;26.74;49.15
41503;BME280;27237;42.554;22.966;2022-07-29T07:42:11;93419.84;;;26.76;49.59
41503;BME280;27237;42.554;22.966;2022-07-29T07:44:38;93416.34;;;26.75;51.01
41503;BME280;27237;42.554;22.966;2022-07-29T07:47:04;93415.13;;;26.60;51.55
41503;BME280;27237;42.554;22.966;2022-07-29T07:49:30;93420.19;;;26.74;51.02
41503;BME280;27237;42.554;22.966;2022-07-29T07:51:55;93421.41;;;26.77;48.76
41503;BME280;27237;42.554;22.966;2022-07-29T07:54:21;93415.81;;;26.85;51.65
41503;BME280;27237;42.554;22.966;2022-07-29T07:56:46;93409.34;;;26.90;50.29
41503;BME280;27237;42.554;22.966;2022-07-29T07:59:15;93415.66;;;26.94;49.97
41503;BME280;27237;42.554;22.966;2022-07-29T08:01:40;93411.91;;;26.99;48.58
41503;BME280;27237;42.554;22.966;2022-07-29T08:04:05;93417.91;;;27.04;50.08
41503;BME280;27237;42.554;22.966;2022-07-29T08:06:32;93422.66;;;27.07;52.05
41503;BME280;27237;42.554;22.966;2022-07-29T08:09:00;93424.38;;;27.28;49.73
41503;BME280;27237;42.554;22.966;2022-07-29T08:11:25;93425.38;;;27.51;50.21
41503;BME280;27237;42.554;22.966;2022-07-29T08:13:50;93424.94;;;27.65;50.57
41503;BME280;27237;42.554;22.966;2022-07-29T08:16:17;93421.47;;;27.81;48.42
41503;BME280;27237;42.554;22.966;2022-07-29T08:18:44;93419.16;;;27.98;48.15
41503;BME280;27237;42.554;22.966;2022-07-29T08:21:10;93411.25;;;28.09;47.13
41503;BME280;27237;42.554;22.966;2022-07-29T08:23:35;93412.03;;;28.10;43.99
41503;BME280;27237;42.554;22.966;2022-07-29T08:26:08;93412.47;;;27.96;44.70
41503;BME280;27237;42.554;22.966;2022-07-29T08:28:40;93411.78;;;27.99;47.46
41503;BME280;27237;42.554;22.966;2022-07-29T08:31:06;93408.34;;;28.02;47.90
41503;BME280;27237;42.554;22.966;2022-07-29T08:33:32;93408.50;;;28.09;47.82
41503;BME280;27237;42.554;22.966;2022-07-29T08:35:58;93401.13;;;28.10;47.79
41503;BME280;27237;42.554;22.966;2022-07-29T08:38:24;93396.44;;;28.10;46.67
41503;BME280;27237;42.554;22.966;2022-07-29T08:40:51;93408.84;;;28.08;47.22
41503;BME280;27237;42.554;22.966;2022-07-29T08:43:18;93399.38;;;28.02;48.01
41503;BME280;27237;42.554;22.966;2022-07-29T08:45:50;93397.22;;;28.11;48.22
41503;BME280;27237;42.554;22.966;2022-07-29T08:48:18;93391.16;;;28.17;47.11
41503;BME280;27237;42.554;22.966;2022-07-29T08:50:44;93402.72;;;28.30;47.15
41503;BME280;27237;42.554;22.966;2022-07-29T08:53:12;93399.00;;;28.38;47.38
41503;BME280;27237;42.554;22.966;2022-07-29T08:55:42;93399.38;;;28.37;48.22
41503;BME280;27237;42.554;22.966;2022-07-29T08:58:09;93394.34;;;28.39;48.13
41503;BME280;27237;42.554;22.966;2022-07-29T09:00:37;93374.59;;;28.26;46.78
41503;BME280;27237;42.554;22.966;2022-07-29T09:03:05;93397.38;;;28.34;46.92
41503;BME280;27237;42.554;22.966;2022-07-29T09:05:32;93399.81;;;28.39;46.94
41503;BME280;27237;42.554;22.966;2022-07-29T09:07:58;93390.03;;;28.38;47.99
41503;BME280;27237;42.554;22.966;2022-07-29T09:10:24;93393.31;;;28.43;47.53
41503;BME280;27237;42.554;22.966;2022-07-29T09:12:50;93387.88;;;28.28;45.08
41503;BME280;27237;42.554;22.966;2022-07-29T09:15:17;93396.41;;;28.26;45.87
41503;BME280;27237;42.554;22.966;2022-07-29T09:17:47;93390.72;;;28.15;44.80
41503;BME280;27237;42.554;22.966;2022-07-29T09:20:19;93395.66;;;27.94;46.62
41503;BME280;27237;42.554;22.966;2022-07-29T09:22:45;93386.91;;;27.85;46.43
41503;BME280;27237;42.554;22.966;2022-07-29T09:25:35;93395.78;;;27.82;48.22
41503;BME280;27237;42.554;22.966;2022-07-29T09:28:08;93396.22;;;27.84;49.26
41503;BME280;27237;42.554;22.966;2022-07-29T09:30:34;93392.16;;;27.93;48.11
41503;BME280;27237;42.554;22.966;2022-07-29T09:33:01;93390.75;;;27.99;48.31
41503;BME280;27237;42.554;22.966;2022-07-29T09:35:30;93390.06;;;28.03;47.58
41503;BME280;27237;42.554;22.966;2022-07-29T09:37:56;93388.00;;;27.99;47.07
41503;BME280;27237;42.554;22.966;2022-07-29T09:40:27;93383.28;;;27.96;47.31
41503;BME280;27237;42.554;22.966;2022-07-29T09:42:53;93353.47;;;27.72;46.61
41503;BME280;27237;42.554;22.966;2022-07-29T09:47:53;93386.81;;;27.97;49.80
41503;BME280;27237;42.554;22.966;2022-07-29T09:50:20;93372.97;;;28.06;49.32
41503;BME280;27237;42.554;22.966;2022-07-29T09:52:49;93367.84;;;28.20;50.24
41503;BME280;27237;42.554;22.966;2022-07-29T09:55:15;93342.69;;;28.11;49.62
41503;BME280;27237;42.554;22.966;2022-07-29T09:57:41;93362.69;;;28.34;50.36
41503;BME280;27237;42.554;22.966;2022-07-29T10:02:34;93360.84;;;28.58;50.31
41503;BME280;27237;42.554;22.966;2022-07-29T10:05:03;93337.50;;;28.60;49.13
41503;BME280;27237;42.554;22.966;2022-07-29T10:07:51;93353.31;;;28.71;47.28
41503;BME280;27237;42.554;22.966;2022-07-29T10:10:24;93347.22;;;28.77;47.11
41503;BME280;27237;42.554;22.966;2022-07-29T10:12:53;93348.56;;;28.68;48.86
41503;BME280;27237;42.554;22.966;2022-07-29T10:15:21;93339.53;;;28.63;46.63
41503;BME280;27237;42.554;22.966;2022-07-29T10:17:47;93332.78;;;28.57;45.27
41503;BME280;27237;42.554;22.966;2022-07-29T10:20:14;93332.56;;;28.66;47.96
41503;BME280;27237;42.554;22.966;2022-07-29T10:22:40;93337.28;;;28.69;47.22
41503;BME280;27237;42.554;22.966;2022-07-29T10:25:07;93331.09;;;28.72;45.47
41503;BME280;27237;42.554;22.966;2022-07-29T10:27:34;93307.53;;;28.64;46.59
41503;BME280;27237;42.554;22.966;2022-07-29T10:30:00;93326.66;;;28.83;44.28
41503;BME280;27237;42.554;22.966;2022-07-29T10:43:53;93315.91;;;28.94;41.59
41503;BME280;27237;42.554;22.966;2022-07-29T10:46:19;93312.47;;;28.97;42.99
41503;BME280;27237;42.554;22.966;2022-07-29T10:49:16;93310.91;;;28.96;42.39
41503;BME280;27237;42.554;22.966;2022-07-29T10:52:03;93313.25;;;28.98;40.12
41503;BME280;27237;42.554;22.966;2022-07-29T10:59:39;93306.94;;;28.94;41.65
41503;BME280;27237;42.554;22.966;2022-07-29T11:07:27;93291.56;;;29.05;40.80
41503;BME280;27237;42.554;22.966;2022-07-29T11:15:12;93286.66;;;29.14;41.25
41503;BME280;27237;42.554;22.966;2022-07-29T11:23:31;93283.47;;;29.12;39.95
41503;BME280;27237;42.554;22.966;2022-07-29T11:28:38;93275.34;;;29.16;40.40
41503;BME280;27237;42.554;22.966;2022-07-29T11:31:07;93282.00;;;29.18;41.16
41503;BME280;27237;42.554;22.966;2022-07-29T11:33:34;93282.00;;;29.18;41.17
41503;BME280;27237;42.554;22.966;2022-07-29T11:36:14;93276.97;;;29.20;40.27
41503;BME280;27237;42.554;22.966;2022-07-29T11:38:40;93281.28;;;29.21;40.04
41503;BME280;27237;42.554;22.966;2022-07-29T11:46:49;93258.06;;;29.08;36.65
41503;BME280;27237;42.554;22.966;2022-07-29T11:49:26;93260.06;;;29.11;36.26
41503;BME280;27237;42.554;22.966;2022-07-29T11:51:52;93254.59;;;29.11;38.54
41503;BME280;27237;42.554;22.966;2022-07-29T11:54:24;93256.91;;;29.09;36.15
41503;BME280;27237;42.554;22.966;2022-07-29T11:56:51;93258.78;;;29.05;36.28
41503;BME280;27237;42.554;22.966;2022-07-29T11:59:17;93246.97;;;29.01;36.09
41503;BME280;27237;42.554;22.966;2022-07-29T12:01:58;93257.97;;;29.04;35.90
41503;BME280;27237;42.554;22.966;2022-07-29T12:04:24;93246.19;;;29.00;38.09
41503;BME280;27237;42.554;22.966;2022-07-29T12:06:52;93232.72;;;28.88;39.00
41503;BME280;27237;42.554;22.966;2022-07-29T12:09:18;93256.41;;;29.03;37.26
41503;BME280;27237;42.554;22.966;2022-07-29T12:11:45;93261.56;;;29.08;36.54
41503;BME280;27237;42.554;22.966;2022-07-29T12:14:30;93256.53;;;29.11;36.18
41503;BME280;27237;42.554;22.966;2022-07-29T12:16:57;93255.03;;;29.13;35.79
41503;BME280;27237;42.554;22.966;2022-07-29T12:19:23;93252.28;;;29.13;37.43
41503;BME280;27237;42.554;22.966;2022-07-29T12:21:53;93248.41;;;29.14;36.76
41503;BME280;27237;42.554;22.966;2022-07-29T12:24:20;93244.50;;;29.15;37.06
41503;BME280;27237;42.554;22.966;2022-07-29T12:26:59;93235.56;;;29.18;37.43
41503;BME280;27237;42.554;22.966;2022-07-29T12:29:25;93240.25;;;29.18;38.65
41503;BME280;27237;42.554;22.966;2022-07-29T12:31:55;93233.69;;;29.22;38.67
41503;BME280;27237;42.554;22.966;2022-07-29T12:34:23;93233.25;;;29.20;39.02
41503;BME280;27237;42.554;22.966;2022-07-29T12:36:52;93232.84;;;29.18;39.54
41503;BME280;27237;42.554;22.966;2022-07-29T12:39:18;93226.25;;;29.19;39.01
41503;BME280;27237;42.554;22.966;2022-07-29T12:41:44;93221.91;;;29.18;39.26
41503;BME280;27237;42.554;22.966;2022-07-29T12:44:10;93224.63;;;29.18;38.69
41503;BME280;27237;42.554;22.966;2022-07-29T12:46:36;93217.31;;;29.22;39.01
41503;BME280;27237;42.554;22.966;2022-07-29T12:49:02;93219.31;;;29.25;37.94
41503;BME280;27237;42.554;22.966;2022-07-29T12:51:32;93224.34;;;29.23;35.12
41503;BME280;27237;42.554;22.966;2022-07-29T12:56:28;93208.00;;;29.27;36.56
41503;BME280;27237;42.554;22.966;2022-07-29T12:58:53;93216.56;;;29.25;36.15
41503;BME280;27237;42.554;22.966;2022-07-29T13:01:19;93214.56;;;29.22;35.36
41503;BME280;27237;42.554;22.966;2022-07-29T13:03:55;93211.06;;;29.22;35.14
41503;BME280;27237;42.554;22.966;2022-07-29T13:06:44;93207.94;;;29.23;34.52
41503;BME280;27237;42.554;22.966;2022-07-29T13:09:19;93207.94;;;29.23;35.44
41503;BME280;27237;42.554;22.966;2022-07-29T13:11:47;93190.34;;;29.21;34.76
41503;BME280;27237;42.554;22.966;2022-07-29T13:14:30;93192.75;;;29.26;34.69
41503;BME280;27237;42.554;22.966;2022-07-29T13:17:14;93192.41;;;29.27;34.71
41503;BME280;27237;42.554;22.966;2022-07-29T13:19:51;93197.44;;;29.25;33.65
41503;BME280;27237;42.554;22.966;2022-07-29T13:22:21;93180.09;;;29.14;32.98
41503;BME280;27237;42.554;22.966;2022-07-29T13:27:22;93194.75;;;29.29;32.44
41503;BME280;27237;42.554;22.966;2022-07-29T13:29:48;93172.25;;;29.13;32.30
41503;BME280;27237;42.554;22.966;2022-07-29T13:32:16;93190.16;;;29.33;32.97
41503;BME280;27237;42.554;22.966;2022-07-29T13:34:42;93188.25;;;29.37;33.83
41503;BME280;27237;42.554;22.966;2022-07-29T13:37:07;93182.03;;;29.40;34.88
41503;BME280;27237;42.554;22.966;2022-07-29T13:39:33;93186.34;;;29.41;35.43
41503;BME280;27237;42.554;22.966;2022-07-29T13:41:58;93177.34;;;29.41;35.39
41503;BME280;27237;42.554;22.966;2022-07-29T13:44:24;93168.69;;;29.35;34.65
41503;BME280;27237;42.554;22.966;2022-07-29T13:46:49;93185.25;;;29.46;34.87
41503;BME280;27237;42.554;22.966;2022-07-29T13:49:15;93175.78;;;29.40;35.87
41503;BME280;27237;42.554;22.966;2022-07-29T13:51:40;93182.34;;;29.35;34.77
41503;BME280;27237;42.554;22.966;2022-07-29T13:54:06;93193.66;;;29.34;35.19
41503;BME280;27237;42.554;22.966;2022-07-29T13:56:31;93188.97;;;29.34;36.10
41503;BME280;27237;42.554;22.966;2022-07-29T13:58:56;93186.59;;;29.32;35.47